Time;durP1;ratioP1;P1;durP2;ratioP2;P2;SDS_P1;SDS_P2;PMS_P1;PMS_P2;Temp;Humidity;BMP_temperature;BMP_pressure;BME280_temperature;BME280_humidity;BME280_pressure;Samples;Min_cycle;Max_cycle;Signal;HPM_P1;HPM_P2
2022/01/25 00:08:25;;;;;;;;;;;6.90;99.90;;;;;;5136401;27;19933;-77
2022/01/25 00:24:23;;;;;;;;;;;6.90;99.90;;;;;;5134370;27;20377;-76
2022/01/25 00:27:14;;;;;;;;;;;6.90;99.90;;;;;;5134867;27;20364;-77
2022/01/25 00:32:06;;;;;;;;;;;6.90;99.90;;;;;;5134159;27;19918;-75
2022/01/25 00:34:32;;;;;;;;;;;6.90;99.90;;;;;;5134876;27;19911;-77
2022/01/25 00:36:58;;;;;;;;;;;6.90;99.90;;;;;;5134816;27;19907;-78
2022/01/25 00:39:23;;;;;;;;;;;6.80;99.90;;;;;;5133953;27;20501;-77
2022/01/25 00:41:49;;;;;;;;;;;6.80;99.90;;;;;;5134936;27;19918;-78
2022/01/25 00:44:16;;;;;;;;;;;6.90;99.90;;;;;;5133548;27;19914;-76
2022/01/25 00:46:41;;;;;;;;;;;6.90;99.90;;;;;;5115792;27;20291;-77
2022/01/25 00:49:08;;;;;;;;;;;6.80;99.90;;;;;;5133555;27;19919;-77
2022/01/25 00:54:09;;;;;;;;;;;6.80;99.90;;;;;;5134716;27;20326;-77
2022/01/25 00:56:37;;;;;;;;;;;6.90;99.90;;;;;;5134547;27;20021;-77
2022/01/25 00:59:04;;;;;;;;;;;6.90;99.90;;;;;;5134072;27;19911;-75
2022/01/25 01:01:30;;;;;;;;;;;6.90;99.90;;;;;;5133895;27;19964;-76
2022/01/25 01:03:56;;;;;;;;;;;6.80;99.90;;;;;;5134740;27;19907;-78
2022/01/25 01:06:22;;;;;;;;;;;6.80;99.90;;;;;;5133131;27;20425;-77
2022/01/25 01:08:47;;;;;;;;;;;6.80;99.90;;;;;;5134398;27;19908;-76
2022/01/25 01:11:19;;;;;;;;;;;6.80;99.90;;;;;;5133749;27;19960;-77
2022/01/25 01:46:03;;;;;;;;;;;6.70;99.90;;;;;;5133611;27;19907;-77
2022/01/25 01:48:49;;;;;;;;;;;6.70;99.90;;;;;;5133082;27;19950;-77
2022/01/25 01:51:16;;;;;;;;;;;6.70;99.90;;;;;;5132750;27;20446;-77
2022/01/25 01:53:43;;;;;;;;;;;6.70;99.90;;;;;;5139740;27;19920;-77
2022/01/25 01:56:09;;;;;;;;;;;6.70;99.90;;;;;;5140804;27;19911;-76
2022/01/25 01:58:35;;;;;;;;;;;6.70;99.90;;;;;;5134961;27;20378;-77
2022/01/25 02:01:01;;;;;;;;;;;6.70;99.90;;;;;;5133110;27;19961;-77
2022/01/25 02:03:27;;;;;;;;;;;6.70;99.90;;;;;;5132555;27;20543;-77
2022/01/25 02:05:53;;;;;;;;;;;6.70;99.90;;;;;;5133551;27;19960;-78
2022/01/25 02:08:18;;;;;;;;;;;6.70;99.90;;;;;;5134747;27;19930;-79
2022/01/25 02:10:44;;;;;;;;;;;6.70;99.90;;;;;;5134034;27;19914;-77
2022/01/25 02:13:10;;;;;;;;;;;6.70;99.90;;;;;;5132373;27;20352;-77
2022/01/25 02:15:37;;;;;;;;;;;6.70;99.90;;;;;;5132931;27;19915;-78
2022/01/25 02:23:22;;;;;;;;;;;6.70;99.90;;;;;;5132759;27;19933;-76
2022/01/25 02:25:48;;;;;;;;;;;6.70;99.90;;;;;;5133735;27;19908;-77
2022/01/25 02:28:14;;;;;;;;;;;6.70;99.90;;;;;;5132867;27;19954;-76
2022/01/25 02:30:41;;;;;;;;;;;6.70;99.90;;;;;;5133539;27;19911;-75
2022/01/25 02:33:07;;;;;;;;;;;6.70;99.90;;;;;;5133251;27;19911;-76
2022/01/25 02:35:32;;;;;;;;;;;6.70;99.90;;;;;;5132803;28;19919;-77
2022/01/25 02:37:58;;;;;;;;;;;6.70;99.90;;;;;;5133239;28;19958;-77
2022/01/25 02:40:23;;;;;;;;;;;6.70;99.90;;;;;;5132633;28;19915;-76
2022/01/25 02:42:51;;;;;;;;;;;6.70;99.90;;;;;;5133400;28;19964;-77
2022/01/25 02:45:17;;;;;;;;;;;6.70;99.90;;;;;;5132682;28;19907;-76
2022/01/25 02:50:27;;;;;;;;;;;6.70;99.90;;;;;;5132037;28;19930;-77
2022/01/25 02:52:53;;;;;;;;;;;6.70;99.90;;;;;;5133349;28;19912;-77
2022/01/25 02:55:18;;;;;;;;;;;6.70;99.90;;;;;;5114156;28;19919;-77
2022/01/25 02:57:47;;;;;;;;;;;6.70;99.90;;;;;;5133469;28;20423;-77
2022/01/25 03:00:14;;;;;;;;;;;6.70;99.90;;;;;;5132089;28;19911;-77
2022/01/25 03:02:39;;;;;;;;;;;6.70;99.90;;;;;;5114894;28;20003;-77
2022/01/25 03:05:05;;;;;;;;;;;6.70;99.90;;;;;;5133332;28;19954;-76
2022/01/25 03:07:32;;;;;;;;;;;6.70;99.90;;;;;;5132135;27;19903;-77
2022/01/25 03:09:59;;;;;;;;;;;6.70;99.90;;;;;;5136458;27;19947;-76
2022/01/25 03:12:51;;;;;;;;;;;6.70;99.90;;;;;;5136526;27;19919;-76
2022/01/25 03:18:00;;;;;;;;;;;6.70;99.90;;;;;;5137165;27;19969;-77
2022/01/25 03:23:19;;;;;;;;;;;6.60;99.90;;;;;;5136143;27;19918;-77
2022/01/25 03:25:47;;;;;;;;;;;6.70;99.90;;;;;;5149388;27;19930;-78
2022/01/25 03:28:13;;;;;;;;;;;6.60;99.90;;;;;;5140818;27;19950;-75
2022/01/25 03:30:39;;;;;;;;;;;6.70;99.90;;;;;;5147190;27;20272;-77
2022/01/25 03:33:04;;;;;;;;;;;6.70;99.90;;;;;;5140767;27;19918;-77
2022/01/25 03:35:30;;;;;;;;;;;6.70;99.90;;;;;;5136041;27;19919;-77
2022/01/25 03:37:55;;;;;;;;;;;6.70;99.90;;;;;;5136623;27;19907;-76
2022/01/25 03:40:21;;;;;;;;;;;6.60;99.90;;;;;;5135619;27;19907;-76
2022/01/25 03:42:48;;;;;;;;;;;6.70;99.90;;;;;;5136682;27;19952;-76
2022/01/25 03:45:19;;;;;;;;;;;6.70;99.90;;;;;;5136152;27;20259;-76
2022/01/25 03:47:58;;;;;;;;;;;6.60;99.90;;;;;;5136474;27;20360;-77
2022/01/25 03:50:24;;;;;;;;;;;6.60;99.90;;;;;;5135324;27;19923;-76
2022/01/25 03:52:50;;;;;;;;;;;6.60;99.90;;;;;;5136434;27;19916;-77
2022/01/25 03:55:15;;;;;;;;;;;6.60;99.90;;;;;;5135486;27;19925;-77
2022/01/25 03:57:41;;;;;;;;;;;6.60;99.90;;;;;;5136630;27;19929;-77
2022/01/25 04:00:07;;;;;;;;;;;6.60;99.90;;;;;;5136403;27;19907;-78
2022/01/25 04:02:35;;;;;;;;;;;6.60;99.90;;;;;;5135499;27;19961;-76
2022/01/25 04:05:01;;;;;;;;;;;6.60;99.90;;;;;;5136070;27;19954;-76
2022/01/25 04:07:42;;;;;;;;;;;6.60;99.90;;;;;;5135308;27;19943;-77
2022/01/25 04:10:08;;;;;;;;;;;6.60;99.90;;;;;;5136165;27;19908;-76
2022/01/25 04:12:34;;;;;;;;;;;6.50;99.90;;;;;;5135221;27;19919;-76
2022/01/25 04:15:01;;;;;;;;;;;6.50;99.90;;;;;;5135963;27;19915;-77
2022/01/25 04:17:26;;;;;;;;;;;6.50;99.90;;;;;;5135227;27;19908;-75
2022/01/25 04:20:16;;;;;;;;;;;6.50;99.90;;;;;;5135585;27;19908;-77
2022/01/25 04:25:26;;;;;;;;;;;6.50;99.90;;;;;;5135126;27;19914;-77
2022/01/25 04:27:52;;;;;;;;;;;6.50;99.90;;;;;;5135749;27;19907;-77
2022/01/25 04:30:18;;;;;;;;;;;6.50;99.90;;;;;;5135189;27;20352;-76
2022/01/25 04:32:58;;;;;;;;;;;6.60;99.90;;;;;;5135358;27;20326;-77
2022/01/25 04:35:56;;;;;;;;;;;6.60;99.90;;;;;;5134997;27;20271;-75
2022/01/25 04:54:09;;;;;;;;;;;6.50;99.90;;;;;;5135140;27;19957;-77
2022/01/25 04:59:12;;;;;;;;;;;6.40;99.90;;;;;;5135339;27;19994;-77
2022/01/25 05:01:39;;;;;;;;;;;6.40;99.90;;;;;;5134437;27;19908;-77
2022/01/25 05:04:13;;;;;;;;;;;6.40;99.90;;;;;;5135110;27;19913;-77
2022/01/25 05:06:41;;;;;;;;;;;6.40;99.90;;;;;;5134252;27;19903;-76
2022/01/25 05:09:10;;;;;;;;;;;6.40;99.90;;;;;;5134234;27;20310;-77
2022/01/25 05:11:38;;;;;;;;;;;6.40;99.90;;;;;;5133397;27;20364;-76
2022/01/25 05:16:36;;;;;;;;;;;6.40;99.90;;;;;;5134082;27;19912;-76
2022/01/25 05:22:03;;;;;;;;;;;6.40;99.90;;;;;;5134778;27;19994;-77
2022/01/25 05:24:41;;;;;;;;;;;6.40;99.90;;;;;;5133636;27;20002;-76
2022/01/25 05:27:08;;;;;;;;;;;6.40;99.90;;;;;;5134489;27;19951;-76
2022/01/25 05:29:33;;;;;;;;;;;6.40;99.90;;;;;;5133624;27;20375;-76
2022/01/25 05:31:59;;;;;;;;;;;6.40;99.90;;;;;;5133968;27;19916;-76
2022/01/25 05:34:25;;;;;;;;;;;6.40;99.90;;;;;;5115271;27;19964;-76
2022/01/25 05:36:51;;;;;;;;;;;6.50;99.90;;;;;;5134391;27;19907;-76
2022/01/25 05:39:22;;;;;;;;;;;6.40;99.90;;;;;;5115928;27;19914;-76
2022/01/25 05:41:55;;;;;;;;;;;6.50;99.90;;;;;;5133741;27;19911;-76
2022/01/25 05:44:25;;;;;;;;;;;6.50;99.90;;;;;;5134165;27;20356;-76
2022/01/25 05:49:23;;;;;;;;;;;6.50;99.90;;;;;;5133681;27;20002;-76
2022/01/25 05:51:49;;;;;;;;;;;6.60;99.90;;;;;;5133807;27;20013;-76
2022/01/25 05:54:14;;;;;;;;;;;6.50;99.90;;;;;;5134185;27;19918;-76
2022/01/25 05:56:40;;;;;;;;;;;6.60;99.90;;;;;;5134834;27;19916;-76
2022/01/25 05:59:06;;;;;;;;;;;6.60;99.90;;;;;;5134419;27;19930;-76
2022/01/25 06:01:32;;;;;;;;;;;6.70;99.90;;;;;;5133278;27;19961;-76
2022/01/25 06:03:58;;;;;;;;;;;6.70;99.90;;;;;;5134112;27;19907;-77
2022/01/25 06:06:24;;;;;;;;;;;6.70;99.90;;;;;;5139167;27;19915;-76
2022/01/25 06:08:49;;;;;;;;;;;6.70;99.90;;;;;;5139976;27;19919;-76
2022/01/25 06:11:15;;;;;;;;;;;6.70;99.90;;;;;;5134127;27;19916;-76
2022/01/25 06:13:40;;;;;;;;;;;6.70;99.90;;;;;;5132994;27;19912;-76
2022/01/25 06:16:06;;;;;;;;;;;6.70;99.90;;;;;;5133539;27;19915;-77
2022/01/25 06:18:31;;;;;;;;;;;6.70;99.90;;;;;;5132703;27;19908;-77
2022/01/25 06:20:57;;;;;;;;;;;6.70;99.90;;;;;;5133341;27;19907;-76
2022/01/25 06:23:23;;;;;;;;;;;6.70;99.90;;;;;;5133507;27;19907;-76
2022/01/25 06:25:49;;;;;;;;;;;6.80;99.90;;;;;;5132978;27;19911;-77
2022/01/25 06:28:14;;;;;;;;;;;6.80;99.90;;;;;;5133568;27;20257;-77
2022/01/25 06:30:40;;;;;;;;;;;6.80;99.90;;;;;;5132579;27;19912;-76
2022/01/25 06:33:09;;;;;;;;;;;6.80;99.90;;;;;;5133466;27;20249;-76
2022/01/25 06:35:35;;;;;;;;;;;6.80;99.90;;;;;;5132700;27;19941;-77
2022/01/25 06:38:00;;;;;;;;;;;6.80;99.90;;;;;;5133515;28;19994;-77
2022/01/25 06:40:26;;;;;;;;;;;6.80;99.90;;;;;;5133034;28;19908;-76
2022/01/25 06:42:52;;;;;;;;;;;6.80;99.90;;;;;;5133251;27;19921;-77
2022/01/25 06:45:20;;;;;;;;;;;6.80;99.90;;;;;;5137502;27;20006;-77
2022/01/25 06:47:47;;;;;;;;;;;6.80;99.90;;;;;;5136862;27;19964;-77
2022/01/25 06:50:13;;;;;;;;;;;6.80;99.90;;;;;;5137573;27;19919;-77
2022/01/25 06:52:41;;;;;;;;;;;6.80;99.90;;;;;;5136923;27;19911;-77
2022/01/25 06:55:11;;;;;;;;;;;6.80;99.90;;;;;;5137499;27;19941;-77
2022/01/25 06:57:36;;;;;;;;;;;6.80;99.90;;;;;;5136473;27;19914;-77
2022/01/25 07:00:06;;;;;;;;;;;6.80;99.90;;;;;;5118622;27;19907;-77
2022/01/25 07:02:32;;;;;;;;;;;6.80;99.90;;;;;;5136825;27;19907;-77
2022/01/25 07:04:57;;;;;;;;;;;6.80;99.90;;;;;;5137245;27;19907;-77
2022/01/25 07:07:23;;;;;;;;;;;6.80;99.90;;;;;;5137325;27;19911;-77
2022/01/25 07:09:49;;;;;;;;;;;6.80;99.90;;;;;;5136446;27;19918;-77
2022/01/25 07:12:14;;;;;;;;;;;6.80;99.90;;;;;;5137030;27;20425;-77
2022/01/25 07:14:40;;;;;;;;;;;6.80;99.90;;;;;;5137356;27;19911;-77
2022/01/25 07:17:05;;;;;;;;;;;6.80;99.90;;;;;;5136822;27;19913;-77
2022/01/25 07:19:31;;;;;;;;;;;6.80;99.90;;;;;;5136433;27;19961;-76
2022/01/25 07:21:56;;;;;;;;;;;6.80;99.90;;;;;;5137488;27;19943;-77
2022/01/25 07:24:22;;;;;;;;;;;6.80;99.90;;;;;;5136917;27;19907;-77
2022/01/25 07:26:48;;;;;;;;;;;6.90;99.90;;;;;;5135942;27;19903;-77
2022/01/25 07:29:14;;;;;;;;;;;6.80;99.90;;;;;;5136321;27;20317;-77
2022/01/25 07:31:40;;;;;;;;;;;6.90;99.90;;;;;;5135730;27;19912;-77
2022/01/25 07:34:05;;;;;;;;;;;6.90;99.90;;;;;;5136457;27;20436;-77
2022/01/25 07:36:31;;;;;;;;;;;6.90;99.90;;;;;;5136067;27;19972;-76
2022/01/25 07:38:56;;;;;;;;;;;6.90;99.90;;;;;;5136544;27;19907;-77
2022/01/25 07:41:23;;;;;;;;;;;6.90;99.90;;;;;;5136425;27;20344;-76
2022/01/25 07:43:48;;;;;;;;;;;6.90;99.90;;;;;;5135708;27;20423;-76
2022/01/25 07:46:16;;;;;;;;;;;6.90;99.90;;;;;;5136788;27;20425;-76
2022/01/25 07:48:42;;;;;;;;;;;6.90;99.90;;;;;;5135393;27;19949;-76
2022/01/25 07:51:07;;;;;;;;;;;6.90;99.90;;;;;;5136118;27;19951;-76
2022/01/25 07:53:33;;;;;;;;;;;6.90;99.90;;;;;;5135395;27;19918;-75
2022/01/25 07:55:58;;;;;;;;;;;6.90;99.90;;;;;;5136080;27;19986;-77
2022/01/25 07:58:24;;;;;;;;;;;6.90;99.90;;;;;;5136145;27;19914;-76
2022/01/25 08:00:50;;;;;;;;;;;6.90;99.90;;;;;;5135281;27;20092;-76
2022/01/25 08:03:19;;;;;;;;;;;6.90;99.90;;;;;;5117662;27;19907;-76
2022/01/25 08:05:45;;;;;;;;;;;6.90;99.90;;;;;;5135292;27;20321;-75
2022/01/25 08:08:11;;;;;;;;;;;6.90;99.90;;;;;;5135645;27;20295;-77
2022/01/25 08:10:37;;;;;;;;;;;6.80;99.90;;;;;;5134687;27;19957;-76
2022/01/25 08:13:02;;;;;;;;;;;6.90;99.90;;;;;;5135839;27;19912;-77
2022/01/25 08:15:29;;;;;;;;;;;6.90;99.90;;;;;;5135340;27;19912;-77
2022/01/25 08:17:54;;;;;;;;;;;6.90;99.90;;;;;;5134398;27;19968;-76
2022/01/25 08:20:20;;;;;;;;;;;6.90;99.90;;;;;;5135626;27;20005;-76
2022/01/25 08:22:45;;;;;;;;;;;6.90;99.90;;;;;;5134819;27;20305;-77
2022/01/25 08:25:11;;;;;;;;;;;6.90;99.90;;;;;;5135529;27;19908;-77
2022/01/25 08:27:37;;;;;;;;;;;6.90;99.90;;;;;;5134278;27;20279;-76
2022/01/25 08:30:03;;;;;;;;;;;6.90;99.90;;;;;;5137064;27;19907;-77
2022/01/25 08:32:29;;;;;;;;;;;6.90;99.90;;;;;;5137058;27;19912;-75
2022/01/25 08:34:54;;;;;;;;;;;6.90;99.90;;;;;;5134309;27;19913;-75
2022/01/25 08:37:20;;;;;;;;;;;6.90;99.90;;;;;;5135200;27;20314;-76
2022/01/25 08:39:46;;;;;;;;;;;6.90;99.90;;;;;;5141141;27;19914;-77
2022/01/25 08:42:11;;;;;;;;;;;6.90;99.90;;;;;;5147070;27;19907;-76
2022/01/25 08:44:38;;;;;;;;;;;6.90;99.90;;;;;;5134573;27;19911;-76
2022/01/25 08:47:04;;;;;;;;;;;6.90;99.90;;;;;;5135186;27;19915;-77
2022/01/25 08:49:30;;;;;;;;;;;6.90;99.90;;;;;;5135031;27;20091;-77
2022/01/25 08:51:56;;;;;;;;;;;6.80;99.90;;;;;;5134063;27;20412;-77
2022/01/25 08:54:22;;;;;;;;;;;6.90;99.90;;;;;;5134600;27;19918;-77
2022/01/25 08:56:47;;;;;;;;;;;6.80;99.90;;;;;;5135269;27;19953;-77
2022/01/25 08:59:13;;;;;;;;;;;6.80;99.90;;;;;;5135355;27;20344;-77
2022/01/25 09:01:38;;;;;;;;;;;6.80;99.90;;;;;;5128170;27;19911;-76
2022/01/25 09:04:04;;;;;;;;;;;6.80;99.90;;;;;;5134954;27;19921;-77
2022/01/25 09:06:30;;;;;;;;;;;6.80;99.90;;;;;;5133457;27;20355;-76
2022/01/25 09:09:01;;;;;;;;;;;6.80;99.90;;;;;;5134639;27;19904;-78
2022/01/25 09:11:27;;;;;;;;;;;6.80;99.90;;;;;;5131794;27;19957;-77
2022/01/25 09:13:52;;;;;;;;;;;6.80;99.90;;;;;;5127757;27;19919;-77
2022/01/25 09:16:18;;;;;;;;;;;6.80;99.90;;;;;;5125350;27;19932;-77
2022/01/25 09:18:43;;;;;;;;;;;6.80;99.90;;;;;;5116145;27;19943;-77
2022/01/25 09:21:09;;;;;;;;;;;6.80;99.90;;;;;;5114123;28;19911;-77
2022/01/25 09:23:35;;;;;;;;;;;6.80;99.90;;;;;;5115282;27;19954;-78
2022/01/25 09:26:02;;;;;;;;;;;6.80;99.90;;;;;;5126623;27;19916;-78
2022/01/25 09:28:28;;;;;;;;;;;6.80;99.90;;;;;;5133307;27;19907;-77
2022/01/25 09:30:53;;;;;;;;;;;6.80;99.90;;;;;;5132646;27;19907;-77
2022/01/25 09:33:19;;;;;;;;;;;6.80;99.90;;;;;;5133922;27;19919;-77
2022/01/25 09:35:45;;;;;;;;;;;6.80;99.90;;;;;;5133440;27;19915;-77
2022/01/25 09:38:11;;;;;;;;;;;6.90;99.90;;;;;;5134157;27;20060;-77
2022/01/25 09:40:36;;;;;;;;;;;6.90;99.90;;;;;;5134123;27;19907;-76
2022/01/25 09:43:02;;;;;;;;;;;6.90;99.90;;;;;;5133607;27;19973;-77
2022/01/25 09:45:28;;;;;;;;;;;6.90;99.90;;;;;;5133596;27;20349;-77
2022/01/25 09:47:54;;;;;;;;;;;6.90;99.90;;;;;;5137703;27;19911;-78
2022/01/25 09:50:21;;;;;;;;;;;6.90;99.90;;;;;;5123947;27;19934;-78
2022/01/25 09:52:47;;;;;;;;;;;6.90;99.90;;;;;;5132428;27;20267;-77
2022/01/25 09:55:14;;;;;;;;;;;6.90;99.90;;;;;;5133759;27;19937;-77
2022/01/25 09:57:42;;;;;;;;;;;6.90;99.90;;;;;;5128073;27;20251;-76
2022/01/25 10:00:09;;;;;;;;;;;6.90;99.90;;;;;;5133220;27;19915;-78
2022/01/25 10:02:53;;;;;;;;;;;7.00;99.90;;;;;;5133227;27;19961;-76
2022/01/25 10:05:18;;;;;;;;;;;7.00;99.90;;;;;;5132984;27;19907;-77
2022/01/25 10:07:54;;;;;;;;;;;7.00;99.90;;;;;;5131911;27;19907;-79
2022/01/25 10:10:20;;;;;;;;;;;7.00;99.90;;;;;;5132524;27;19915;-78
2022/01/25 10:12:45;;;;;;;;;;;7.00;99.90;;;;;;5126052;27;19916;-77
2022/01/25 10:15:11;;;;;;;;;;;7.00;99.90;;;;;;5125374;27;20437;-76
2022/01/25 10:17:37;;;;;;;;;;;7.00;99.90;;;;;;5132467;27;19911;-77
2022/01/25 10:20:05;;;;;;;;;;;7.00;99.90;;;;;;5131775;27;19951;-76
2022/01/25 10:22:46;;;;;;;;;;;7.10;99.90;;;;;;5128896;27;19912;-78
2022/01/25 10:25:12;;;;;;;;;;;7.00;99.90;;;;;;5112606;27;19960;-78
2022/01/25 10:27:59;;;;;;;;;;;7.10;99.90;;;;;;5132022;27;19916;-76
2022/01/25 10:30:25;;;;;;;;;;;7.10;99.90;;;;;;5129390;27;19907;-77
2022/01/25 10:32:51;;;;;;;;;;;7.10;99.90;;;;;;5130987;27;19992;-75
2022/01/25 10:35:17;;;;;;;;;;;7.10;99.90;;;;;;5131955;27;19955;-76
2022/01/25 10:37:42;;;;;;;;;;;7.10;99.90;;;;;;5131182;27;19958;-76
2022/01/25 10:40:08;;;;;;;;;;;7.10;99.90;;;;;;5131967;27;20424;-78
2022/01/25 10:42:35;;;;;;;;;;;7.10;99.90;;;;;;5132485;28;19914;-76
2022/01/25 10:45:16;;;;;;;;;;;7.20;99.90;;;;;;5131405;28;19912;-77
2022/01/25 10:47:42;;;;;;;;;;;7.20;99.90;;;;;;5131944;28;19958;-76
2022/01/25 10:50:20;;;;;;;;;;;7.20;99.90;;;;;;5132544;27;19919;-77
2022/01/25 10:52:46;;;;;;;;;;;7.30;99.90;;;;;;5132099;28;19915;-76
2022/01/25 10:55:12;;;;;;;;;;;7.30;99.90;;;;;;5132218;28;20364;-77
2022/01/25 10:57:38;;;;;;;;;;;7.30;99.90;;;;;;5132412;28;19918;-75
2022/01/25 11:00:07;;;;;;;;;;;7.40;99.90;;;;;;5128788;28;19912;-77
2022/01/25 11:02:33;;;;;;;;;;;7.40;99.90;;;;;;5111978;28;20276;-76
2022/01/25 11:05:08;;;;;;;;;;;7.40;99.90;;;;;;5113077;28;19912;-76
2022/01/25 11:07:40;;;;;;;;;;;7.40;99.90;;;;;;5097145;28;20329;-76
2022/01/25 11:10:08;;;;;;;;;;;7.50;99.90;;;;;;5131732;28;19911;-76
2022/01/25 11:12:38;;;;;;;;;;;7.50;99.90;;;;;;5131702;28;20382;-76
2022/01/25 11:15:04;;;;;;;;;;;7.60;99.90;;;;;;5131820;28;19918;-76
2022/01/25 11:17:31;;;;;;;;;;;7.70;99.90;;;;;;5132500;28;19977;-76
2022/01/25 11:19:57;;;;;;;;;;;7.60;99.90;;;;;;5124097;28;19908;-76
2022/01/25 11:22:23;;;;;;;;;;;7.70;99.90;;;;;;5131320;28;19912;-76
2022/01/25 11:24:50;;;;;;;;;;;7.70;99.90;;;;;;5131502;28;19915;-76
2022/01/25 11:27:16;;;;;;;;;;;7.80;99.90;;;;;;5132284;28;20253;-76
2022/01/25 11:29:42;;;;;;;;;;;7.70;99.90;;;;;;5133618;27;19915;-75
2022/01/25 11:32:10;;;;;;;;;;;7.70;99.90;;;;;;5135963;27;19919;-76
2022/01/25 11:34:37;;;;;;;;;;;7.80;99.90;;;;;;5136083;27;20291;-76
2022/01/25 11:37:05;;;;;;;;;;;7.80;99.90;;;;;;5135383;27;19910;-76
2022/01/25 11:39:31;;;;;;;;;;;7.90;99.90;;;;;;5136510;27;20288;-77
2022/01/25 11:42:07;;;;;;;;;;;7.90;99.90;;;;;;5135593;27;19943;-78
2022/01/25 11:44:34;;;;;;;;;;;7.90;99.90;;;;;;5136468;27;19993;-77
2022/01/25 11:47:11;;;;;;;;;;;8.00;99.90;;;;;;5135048;27;19951;-77
2022/01/25 11:49:54;;;;;;;;;;;8.00;99.90;;;;;;5117728;27;19919;-77
2022/01/25 11:52:20;;;;;;;;;;;8.10;99.90;;;;;;5115780;27;20021;-77
2022/01/25 11:54:49;;;;;;;;;;;8.10;99.90;;;;;;5124825;27;19912;-77
2022/01/25 11:57:16;;;;;;;;;;;8.20;99.90;;;;;;5115496;28;19994;-77
2022/01/25 11:59:42;;;;;;;;;;;8.20;99.90;;;;;;5115150;28;20379;-76
2022/01/25 12:02:08;;;;;;;;;;;8.20;99.90;;;;;;5114605;28;19908;-77
2022/01/25 12:04:34;;;;;;;;;;;8.20;99.90;;;;;;5115192;28;19908;-77
2022/01/25 12:07:08;;;;;;;;;;;8.30;99.90;;;;;;5114533;28;19918;-77
2022/01/25 12:09:50;;;;;;;;;;;8.30;99.90;;;;;;5115363;28;19915;-77
2022/01/25 12:12:17;;;;;;;;;;;8.30;99.90;;;;;;5115011;28;19977;-76
2022/01/25 12:14:48;;;;;;;;;;;8.30;99.90;;;;;;5114552;28;19912;-75
2022/01/25 12:17:14;;;;;;;;;;;8.40;99.90;;;;;;5114907;28;19915;-75
2022/01/25 12:19:51;;;;;;;;;;;8.40;99.90;;;;;;5096725;28;20280;-76
2022/01/25 12:25:08;;;;;;;;;;;8.40;99.90;;;;;;5133889;27;19914;-76
2022/01/25 12:27:58;;;;;;;;;;;8.40;99.90;;;;;;5118582;27;19912;-76
2022/01/25 12:30:39;;;;;;;;;;;8.40;99.90;;;;;;5128855;27;19917;-76
2022/01/25 12:33:19;;;;;;;;;;;8.50;99.90;;;;;;5133793;27;19907;-77
2022/01/25 12:35:50;;;;;;;;;;;8.50;99.90;;;;;;5134674;27;19990;-75
2022/01/25 12:38:21;;;;;;;;;;;8.50;99.90;;;;;;5134946;27;20005;-75
2022/01/25 12:40:49;;;;;;;;;;;8.50;99.90;;;;;;5133219;27;20372;-76
2022/01/25 12:43:18;;;;;;;;;;;8.50;99.90;;;;;;5135413;27;19912;-77
2022/01/25 12:45:54;;;;;;;;;;;8.50;99.90;;;;;;5134918;27;19911;-76
2022/01/25 12:48:21;;;;;;;;;;;8.50;99.90;;;;;;5134691;27;20003;-77
2022/01/25 12:50:48;;;;;;;;;;;8.50;99.90;;;;;;5134309;27;19959;-75
2022/01/25 12:53:15;;;;;;;;;;;8.50;99.90;;;;;;5116340;27;19962;-77
2022/01/25 12:55:43;;;;;;;;;;;8.50;99.90;;;;;;5135021;27;19912;-76
2022/01/25 12:58:08;;;;;;;;;;;8.50;99.90;;;;;;5133843;27;20724;-76
2022/01/25 13:00:39;;;;;;;;;;;8.50;99.90;;;;;;5135028;27;19907;-77
2022/01/25 13:03:19;;;;;;;;;;;8.50;99.90;;;;;;5133639;27;20804;-76
2022/01/25 13:05:50;;;;;;;;;;;8.50;99.90;;;;;;5134559;27;19914;-77
2022/01/25 13:08:15;;;;;;;;;;;8.50;99.90;;;;;;5134631;27;19954;-76
2022/01/25 13:10:41;;;;;;;;;;;8.50;99.90;;;;;;5134754;27;20333;-76
2022/01/25 13:13:23;;;;;;;;;;;8.50;99.90;;;;;;5111548;27;19919;-78
2022/01/25 13:15:56;;;;;;;;;;;8.50;99.90;;;;;;5133774;27;19964;-75
2022/01/25 13:18:24;;;;;;;;;;;8.60;99.90;;;;;;5134408;27;19911;-75
2022/01/25 13:20:58;;;;;;;;;;;8.60;99.90;;;;;;5133966;27;19908;-75
2022/01/25 13:23:24;;;;;;;;;;;8.60;99.90;;;;;;5134656;27;20383;-77
2022/01/25 13:26:12;;;;;;;;;;;8.60;99.90;;;;;;5133741;27;19911;-75
2022/01/25 13:31:16;;;;;;;;;;;8.60;99.90;;;;;;5134220;27;19930;-76
2022/01/25 13:33:41;;;;;;;;;;;8.50;99.90;;;;;;5115214;27;19911;-77
2022/01/25 13:36:08;;;;;;;;;;;8.50;99.90;;;;;;5133807;27;19911;-76
2022/01/25 13:38:41;;;;;;;;;;;8.50;99.90;;;;;;5146477;27;20264;-76
2022/01/25 13:46:09;;;;;;;;;;;8.50;99.90;;;;;;5132963;27;19918;-77
2022/01/25 13:48:35;;;;;;;;;;;8.50;99.90;;;;;;5133814;27;19914;-76
2022/01/25 13:51:03;;;;;;;;;;;8.50;99.90;;;;;;5132643;27;19912;-77
2022/01/25 13:53:29;;;;;;;;;;;8.50;99.90;;;;;;5132730;27;20002;-77
2022/01/25 13:55:56;;;;;;;;;;;8.50;99.90;;;;;;5133102;27;19946;-77
2022/01/25 13:58:26;;;;;;;;;;;8.50;99.90;;;;;;5133007;27;19915;-76
2022/01/25 14:00:52;;;;;;;;;;;8.50;99.90;;;;;;5114311;27;20007;-75
2022/01/25 14:03:23;;;;;;;;;;;8.50;99.90;;;;;;5114930;27;19914;-76
2022/01/25 14:05:48;;;;;;;;;;;8.40;99.90;;;;;;5129605;27;19918;-77
2022/01/25 14:08:14;;;;;;;;;;;8.40;99.90;;;;;;5129687;27;19912;-77
2022/01/25 14:10:45;;;;;;;;;;;8.50;99.90;;;;;;5128251;27;19937;-78
2022/01/25 14:21:52;;;;;;;;;;;8.50;99.90;;;;;;5132246;27;20371;-77
2022/01/25 14:24:18;;;;;;;;;;;8.60;99.90;;;;;;5131123;27;19911;-77
2022/01/25 14:26:44;;;;;;;;;;;8.60;99.90;;;;;;5133020;27;20306;-77
2022/01/25 14:29:17;;;;;;;;;;;8.60;99.90;;;;;;5131873;27;20227;-77
2022/01/25 14:31:45;;;;;;;;;;;8.60;99.90;;;;;;5132708;27;19954;-77
2022/01/25 14:34:12;;;;;;;;;;;8.60;99.90;;;;;;5131733;27;19959;-77
2022/01/25 14:36:39;;;;;;;;;;;8.60;99.90;;;;;;5114101;27;19911;-76
2022/01/25 14:39:05;;;;;;;;;;;8.60;99.90;;;;;;5113662;27;20364;-76
2022/01/25 14:41:32;;;;;;;;;;;8.60;99.90;;;;;;5132858;27;19915;-77
2022/01/25 14:43:58;;;;;;;;;;;8.60;99.90;;;;;;5113496;28;20330;-78
2022/01/25 14:46:26;;;;;;;;;;;8.60;99.90;;;;;;5132456;28;20010;-76
2022/01/25 14:49:00;;;;;;;;;;;8.70;99.90;;;;;;5141976;28;19899;-75
2022/01/25 14:51:32;;;;;;;;;;;8.70;99.90;;;;;;5134292;28;19912;-76
2022/01/25 14:53:58;;;;;;;;;;;8.70;99.90;;;;;;5127709;28;19911;-75
2022/01/25 14:56:28;;;;;;;;;;;8.70;99.90;;;;;;5132459;28;19915;-76
2022/01/25 15:01:21;;;;;;;;;;;8.90;99.90;;;;;;5148242;28;19907;-76
2022/01/25 15:03:49;;;;;;;;;;;8.90;99.90;;;;;;5139563;27;19995;-77
2022/01/25 15:06:15;;;;;;;;;;;8.90;99.90;;;;;;5117787;27;19908;-77
2022/01/25 15:08:51;;;;;;;;;;;8.90;99.90;;;;;;5137088;27;19994;-78
2022/01/25 15:11:18;;;;;;;;;;;8.90;99.90;;;;;;5136022;27;19911;-77
2022/01/25 15:13:43;;;;;;;;;;;8.90;99.90;;;;;;5136724;27;19930;-77
2022/01/25 15:16:10;;;;;;;;;;;8.80;99.90;;;;;;5130562;27;20281;-76
2022/01/25 15:18:38;;;;;;;;;;;8.80;99.90;;;;;;5116096;28;19968;-77
2022/01/25 15:21:05;;;;;;;;;;;8.80;99.90;;;;;;5115351;27;20275;-76
2022/01/25 15:23:33;;;;;;;;;;;8.80;99.90;;;;;;5118178;27;19915;-77
2022/01/25 15:26:01;;;;;;;;;;;8.70;99.90;;;;;;5117998;27;20259;-76
2022/01/25 15:28:36;;;;;;;;;;;8.70;99.90;;;;;;5136557;27;19908;-78
2022/01/25 15:31:03;;;;;;;;;;;8.70;99.90;;;;;;5134684;27;20423;-77
2022/01/25 15:33:29;;;;;;;;;;;8.70;99.90;;;;;;5132843;27;19953;-77
2022/01/25 15:35:54;;;;;;;;;;;8.70;99.90;;;;;;5135088;27;19963;-75
2022/01/25 15:38:20;;;;;;;;;;;8.70;99.90;;;;;;5133100;27;20303;-76
2022/01/25 15:40:45;;;;;;;;;;;8.70;99.90;;;;;;5136087;27;19911;-76
2022/01/25 15:43:11;;;;;;;;;;;8.70;99.90;;;;;;5135289;27;19908;-77
2022/01/25 15:46:25;;;;;;;;;;;8.70;99.90;;;;;;5136130;27;19994;-77
2022/01/25 15:48:22;;;;;;;;;;;8.70;99.90;;;;;;5124472;27;19911;-77
2022/01/25 15:50:49;;;;;;;;;;;8.60;99.90;;;;;;5136188;27;19920;-77
2022/01/25 15:53:15;;;;;;;;;;;8.60;99.90;;;;;;5135042;27;20464;-76
2022/01/25 15:55:41;;;;;;;;;;;8.60;99.90;;;;;;5135616;27;19911;-76
2022/01/25 15:58:06;;;;;;;;;;;8.50;99.90;;;;;;5135433;27;19930;-77
2022/01/25 16:00:32;;;;;;;;;;;8.50;99.90;;;;;;5136236;27;20027;-77
2022/01/25 16:02:59;;;;;;;;;;;8.40;99.90;;;;;;5129428;27;19911;-75
2022/01/25 16:05:25;;;;;;;;;;;8.40;99.90;;;;;;5135386;27;19946;-76
2022/01/25 16:07:52;;;;;;;;;;;8.40;99.90;;;;;;5135364;27;20245;-77
2022/01/25 16:10:19;;;;;;;;;;;8.30;99.90;;;;;;5134371;27;20134;-77
2022/01/25 16:12:45;;;;;;;;;;;8.30;99.90;;;;;;5135025;27;19912;-76
2022/01/25 16:15:10;;;;;;;;;;;8.30;99.90;;;;;;5134192;27;20342;-76
2022/01/25 16:17:36;;;;;;;;;;;8.20;99.90;;;;;;5135578;27;19908;-76
2022/01/25 16:20:02;;;;;;;;;;;8.20;99.90;;;;;;5134420;27;19917;-78
2022/01/25 16:22:27;;;;;;;;;;;8.10;99.90;;;;;;5135258;27;19907;-76
2022/01/25 16:24:53;;;;;;;;;;;8.00;99.90;;;;;;5135798;27;19908;-76
2022/01/25 16:27:19;;;;;;;;;;;8.00;99.90;;;;;;5130196;27;20693;-76
2022/01/25 16:29:44;;;;;;;;;;;7.90;99.90;;;;;;5117688;27;19961;-76
2022/01/25 16:32:12;;;;;;;;;;;7.80;99.90;;;;;;5113765;28;19980;-77
2022/01/25 16:34:38;;;;;;;;;;;7.80;99.90;;;;;;5114473;28;19918;-77
2022/01/25 16:37:04;;;;;;;;;;;7.70;99.90;;;;;;5113550;27;19916;-76